Time;durP1;ratioP1;P1;durP2;ratioP2;P2;SDS_P1;SDS_P2;PMS_P1;PMS_P2;Temp;Humidity;BMP_temperature;BMP_pressure;BME280_temperature;BME280_humidity;BME280_pressure;Samples;Min_cycle;Max_cycle;Signal;HPM_P1;HPM_P2
2022/12/17 13:06:11;;;;;;;24.90;18.93;;;;;;;-1.10;75.80;101319.69;5100218;28;20471;-64
2022/12/17 13:08:38;;;;;;;32.63;22.43;;;;;;;-1.22;76.78;101316.47;5101972;28;20432;-64
2022/12/17 13:11:25;;;;;;;32.28;21.92;;;;;;;-1.23;77.22;101308.63;5097781;27;20519;-64
2022/12/17 13:13:55;;;;;;;29.60;20.37;;;;;;;-1.38;77.68;101308.13;5101725;28;20251;-64
2022/12/17 13:16:33;;;;;;;33.13;19.10;;;;;;;-1.32;77.57;101309.72;5100323;27;20540;-64
2022/12/17 13:19:05;;;;;;;29.95;19.92;;;;;;;-1.38;77.72;101308.13;5100588;28;20193;-64
2022/12/17 13:21:32;;;;;;;25.40;17.45;;;;;;;-1.26;77.34;101308.75;5100163;28;20233;-65
2022/12/17 13:24:00;;;;;;;30.20;18.67;;;;;;;-1.39;77.85;101306.44;5101447;28;20213;-64
2022/12/17 13:26:31;;;;;;;27.80;17.77;;;;;;;-1.42;78.30;101316.13;5097840;27;20490;-64
2022/12/17 13:29:01;;;;;;;27.98;18.70;;;;;;;-1.47;78.52;101315.38;5101659;28;20202;-64
2022/12/17 13:31:32;;;;;;;26.55;19.73;;;;;;;-1.46;78.36;101311.84;5100860;28;20249;-64
2022/12/17 13:34:07;;;;;;;22.83;16.25;;;;;;;-1.44;78.34;101317.91;5101159;28;20201;-64
2022/12/17 13:36:41;;;;;;;24.70;18.55;;;;;;;-1.50;78.29;101315.47;5100755;28;20229;-64
2022/12/17 13:39:19;;;;;;;25.52;17.73;;;;;;;-1.61;79.06;101310.47;5088182;28;20238;-64
2022/12/17 13:41:45;;;;;;;27.20;18.33;;;;;;;-1.59;79.32;101312.16;5039552;28;20274;-64
2022/12/17 13:44:18;;;;;;;25.25;19.10;;;;;;;-1.70;80.08;101308.94;5042134;28;20203;-64
2022/12/17 13:46:50;;;;;;;28.90;18.98;;;;;;;-1.73;79.98;101302.00;5068958;28;20240;-64
2022/12/17 13:49:19;;;;;;;29.30;17.92;;;;;;;-1.81;80.59;101314.41;5072304;28;20210;-64
2022/12/17 13:51:46;;;;;;;30.58;19.85;;;;;;;-1.83;80.82;101312.72;5071643;28;20744;-64
2022/12/17 13:54:16;;;;;;;29.20;19.33;;;;;;;-1.85;81.17;101319.78;5081171;28;20258;-64
2022/12/17 13:56:44;;;;;;;23.95;16.70;;;;;;;-1.90;81.47;101320.72;5078897;28;20222;-64
2022/12/17 13:59:18;;;;;;;32.58;20.33;;;;;;;-2.03;82.36;101321.91;5081508;28;20247;-64
2022/12/17 14:01:48;;;;;;;26.60;19.63;;;;;;;-2.01;82.21;101320.13;5050233;28;20257;-64
2022/12/17 14:04:23;;;;;;;35.53;21.23;;;;;;;-1.86;81.00;101326.75;5042142;28;20257;-64
2022/12/17 14:06:50;;;;;;;33.83;20.25;;;;;;;-2.01;81.25;101335.84;5080616;28;20255;-64
2022/12/17 14:09:18;;;;;;;28.38;20.70;;;;;;;-2.16;81.44;101325.69;5081758;28;20197;-64
2022/12/17 14:14:32;;;;;;;32.03;20.35;;;;;;;-2.35;82.51;101343.53;5081151;28;20252;-64
2022/12/17 14:17:00;;;;;;;31.50;20.75;;;;;;;-2.47;82.93;101342.03;5079750;28;20234;-64
2022/12/17 14:19:28;;;;;;;33.05;20.90;;;;;;;-2.54;83.82;101343.91;5080721;28;20655;-64
2022/12/17 14:21:55;;;;;;;31.17;20.50;;;;;;;-2.56;84.66;101344.84;5080468;28;20256;-64
2022/12/17 14:24:25;;;;;;;30.77;21.13;;;;;;;-2.55;85.02;101342.19;5084175;28;20202;-64
2022/12/17 14:26:55;;;;;;;37.05;21.55;;;;;;;-2.50;84.95;101347.31;5083070;28;20297;-63
2022/12/17 14:29:23;;;;;;;36.20;21.50;;;;;;;-2.52;84.57;101336.03;5085219;28;20283;-64
2022/12/17 14:31:55;;;;;;;32.25;20.48;;;;;;;-2.51;84.59;101346.47;5082545;28;20459;-64
2022/12/17 14:34:23;;;;;;;32.05;19.58;;;;;;;-2.58;84.70;101342.25;5084369;28;20202;-64
2022/12/17 14:36:54;;;;;;;28.05;19.13;;;;;;;-2.61;84.94;101344.06;5083529;28;20252;-64
2022/12/17 14:39:24;;;;;;;34.03;20.08;;;;;;;-2.67;85.05;101348.53;5098301;28;20301;-64
2022/12/17 14:44:50;;;;;;;35.08;19.80;;;;;;;-2.84;85.38;101347.97;5085211;28;20215;-64
2022/12/17 14:47:19;;;;;;;33.05;20.20;;;;;;;-2.98;85.53;101353.47;5103362;28;20256;-64
2022/12/17 14:50:03;;;;;;;31.08;20.08;;;;;;;-3.14;85.98;101342.41;5083903;28;20260;-64
2022/12/17 14:52:36;;;;;;;30.25;20.75;;;;;;;-3.28;86.37;101353.09;5100624;28;20302;-64
2022/12/17 14:55:25;;;;;;;32.42;19.80;;;;;;;-3.39;86.80;101344.56;5103636;28;20720;-63
2022/12/17 14:57:53;;;;;;;36.50;21.38;;;;;;;-3.53;87.34;101352.63;5104298;28;20237;-63
2022/12/17 15:00:20;;;;;;;31.13;22.13;;;;;;;-3.57;87.94;101366.63;5104057;28;20190;-64
2022/12/17 15:02:51;;;;;;;48.30;26.42;;;;;;;-3.64;88.59;101354.56;5103401;28;20240;-64
2022/12/17 15:05:19;;;;;;;44.58;26.90;;;;;;;-3.70;89.00;101349.41;5103221;28;20209;-64
2022/12/17 15:07:46;;;;;;;43.80;28.20;;;;;;;-3.57;89.59;101350.94;5099327;28;20233;-64
2022/12/17 15:10:16;;;;;;;46.05;26.52;;;;;;;-3.50;89.94;101357.81;5095404;28;20198;-64
2022/12/17 15:12:44;;;;;;;46.97;26.77;;;;;;;-3.58;90.10;101345.75;5087340;28;20221;-64
2022/12/17 15:15:13;;;;;;;42.10;27.52;;;;;;;-3.62;90.38;101350.16;5102849;27;20206;-64
2022/12/17 15:17:39;;;;;;;43.33;26.35;;;;;;;-3.70;90.49;101352.88;5102634;28;20224;-64
2022/12/17 15:20:08;;;;;;;43.80;26.58;;;;;;;-3.83;90.93;101346.13;5103475;28;20198;-64
2022/12/17 15:22:37;;;;;;;46.13;26.00;;;;;;;-3.89;91.18;101352.31;5103289;28;20222;-64
2022/12/17 15:25:05;;;;;;;39.95;25.33;;;;;;;-3.94;91.47;101348.00;5103152;28;20209;-63
2022/12/17 15:27:32;;;;;;;51.90;25.45;;;;;;;-4.02;91.62;101348.97;5102233;28;20233;-64
2022/12/17 15:29:59;;;;;;;52.42;28.85;;;;;;;-4.05;91.86;101356.84;5104477;28;20190;-64
2022/12/17 15:32:25;;;;;;;40.17;27.13;;;;;;;-4.20;91.88;101352.69;5101933;27;20267;-64
2022/12/17 15:34:52;;;;;;;42.55;27.70;;;;;;;-4.30;91.94;101358.06;5102966;28;20212;-64
2022/12/17 15:37:19;;;;;;;42.67;26.83;;;;;;;-4.38;92.08;101352.91;5102528;28;20290;-63
2022/12/17 15:39:47;;;;;;;53.95;29.65;;;;;;;-4.48;92.34;101365.19;5102586;28;20226;-64
2022/12/17 15:44:58;;;;;;;43.70;26.33;;;;;;;-4.56;92.76;101361.84;5103371;28;20215;-64
2022/12/17 15:47:26;;;;;;;46.83;27.20;;;;;;;-4.59;93.08;101357.50;5101836;28;20229;-63
2022/12/17 15:49:53;;;;;;;54.95;32.55;;;;;;;-4.64;93.10;101361.06;5102529;28;20476;-64
2022/12/17 15:52:20;;;;;;;41.55;28.40;;;;;;;-4.70;93.25;101353.28;5102567;28;20649;-64
2022/12/17 15:54:52;;;;;;;46.28;28.02;;;;;;;-4.74;93.39;101363.78;5101793;28;20190;-63
2022/12/17 15:57:18;;;;;;;47.17;28.80;;;;;;;-4.86;93.39;101365.63;5101855;28;20229;-64
2022/12/17 15:59:45;;;;;;;45.85;29.48;;;;;;;-4.86;93.59;101369.13;5092021;28;20209;-63
2022/12/17 16:02:12;;;;;;;42.15;27.77;;;;;;;-4.97;93.79;101368.34;5101191;28;20241;-64
2022/12/17 16:04:39;;;;;;;45.67;28.67;;;;;;;-5.05;93.81;101364.94;5101953;28;20202;-63
2022/12/17 16:07:06;;;;;;;46.58;30.85;;;;;;;-5.08;94.09;101364.97;5101959;28;20285;-63
2022/12/17 16:09:34;;;;;;;42.75;29.02;;;;;;;-5.10;94.47;101362.38;5102171;28;21016;-63
2022/12/17 16:12:02;;;;;;;43.03;28.08;;;;;;;-5.11;94.74;101373.69;5101095;28;20241;-63
2022/12/17 16:14:29;;;;;;;50.13;30.77;;;;;;;-5.11;95.02;101368.47;5101971;28;20201;-63
2022/12/17 16:16:55;;;;;;;46.63;29.98;;;;;;;-5.14;95.01;101376.31;5101031;27;20294;-63
2022/12/17 16:19:22;;;;;;;46.75;29.83;;;;;;;-5.11;95.08;101374.53;5101820;28;20645;-63
2022/12/17 16:21:50;;;;;;;48.35;29.77;;;;;;;-5.12;95.03;101371.94;5101814;27;20709;-63
2022/12/17 16:24:17;;;;;;;62.67;37.67;;;;;;;-5.18;95.09;101370.25;5100818;28;20258;-63
2022/12/17 16:26:44;;;;;;;54.55;31.63;;;;;;;-5.25;95.23;101379.00;5101064;28;20229;-63
2022/12/17 16:29:13;;;;;;;59.42;35.25;;;;;;;-5.23;95.55;101379.84;5102306;28;20197;-64
2022/12/17 16:31:40;;;;;;;55.83;36.38;;;;;;;-5.22;95.76;101375.53;5100801;28;20237;-63
2022/12/17 16:34:09;;;;;;;51.38;34.05;;;;;;;-5.26;95.83;101379.00;5092730;28;20206;-63
2022/12/17 16:36:36;;;;;;;53.88;32.00;;;;;;;-5.35;95.80;101373.00;5088296;28;20225;-63
2022/12/17 16:39:03;;;;;;;55.13;32.03;;;;;;;-5.37;95.99;101395.59;5100959;28;20269;-63
2022/12/17 16:41:30;;;;;;;46.10;32.50;;;;;;;-5.39;96.11;101396.50;5101198;28;20297;-63
2022/12/17 16:43:57;;;;;;;53.55;33.72;;;;;;;-5.44;96.34;101391.31;5101671;28;20220;-63
2022/12/17 16:46:28;;;;;;;61.08;35.83;;;;;;;-5.42;96.62;101396.53;5098890;27;20237;-62
2022/12/17 16:48:56;;;;;;;58.70;35.13;;;;;;;-5.53;96.37;101394.00;5100404;28;20219;-63
2022/12/17 16:51:24;;;;;;;59.05;35.97;;;;;;;-5.50;96.35;101387.03;5101242;27;20290;-63
2022/12/17 16:53:51;;;;;;;59.03;36.33;;;;;;;-5.55;96.40;101395.75;5100954;28;20206;-63
2022/12/17 16:56:20;;;;;;;54.47;35.80;;;;;;;-5.59;96.38;101396.63;5100465;28;20275;-63
2022/12/17 16:58:47;;;;;;;53.53;35.45;;;;;;;-5.64;96.53;101406.22;5102231;28;20254;-63
2022/12/17 17:01:18;;;;;;;59.67;34.97;;;;;;;-5.68;96.51;101400.16;5100521;28;20232;-63
2022/12/17 17:03:46;;;;;;;60.35;35.78;;;;;;;-5.69;96.60;101409.72;5099830;28;20197;-63
2022/12/17 17:06:13;;;;;;;59.92;33.80;;;;;;;-5.75;96.48;101407.13;5101372;28;20254;-63
2022/12/17 17:08:40;;;;;;;60.55;35.97;;;;;;;-5.80;96.38;101406.28;5100622;28;20192;-63
2022/12/17 17:11:09;;;;;;;59.63;33.78;;;;;;;-5.86;96.40;101403.75;5100212;28;20229;-62
2022/12/17 17:13:37;;;;;;;56.80;32.55;;;;;;;-5.87;96.35;101408.09;5101545;28;20221;-63
2022/12/17 17:16:04;;;;;;;54.17;34.42;;;;;;;-5.86;96.39;101411.56;5100580;28;20382;-63
2022/12/17 17:18:31;;;;;;;52.15;35.45;;;;;;;-5.90;96.37;101415.91;5101386;28;20193;-63
2022/12/17 17:21:27;;;;;;;54.13;35.08;;;;;;;-6.02;96.00;101423.81;5101346;28;20465;-63
2022/12/17 17:23:56;;;;;;;51.92;32.05;;;;;;;-6.04;95.94;101422.97;5101313;28;20654;-63
2022/12/17 17:26:23;;;;;;;59.28;36.17;;;;;;;-6.06;95.89;101433.38;5100224;28;20786;-62
2022/12/17 17:28:50;;;;;;;58.17;37.00;;;;;;;-6.04;95.84;101428.16;5101365;28;20197;-62
2022/12/17 17:31:17;;;;;;;73.55;40.10;;;;;;;-6.07;95.64;101430.78;5100475;27;20233;-62
2022/12/17 17:33:47;;;;;;;58.00;36.78;;;;;;;-6.13;95.45;101441.19;5101379;28;20209;-62
2022/12/17 17:36:16;;;;;;;62.42;38.47;;;;;;;-6.17;95.49;101434.28;5100979;28;20259;-63
2022/12/17 17:38:45;;;;;;;67.78;40.00;;;;;;;-6.18;95.48;101436.03;5100111;28;20272;-62
2022/12/17 17:41:14;;;;;;;65.68;41.97;;;;;;;-6.23;95.29;101431.69;5100347;28;20237;-62
2022/12/17 17:43:40;;;;;;;61.08;39.65;;;;;;;-6.28;95.15;101436.94;5101716;28;20201;-63
2022/12/17 17:46:09;;;;;;;71.32;41.15;;;;;;;-6.32;95.21;101433.47;5099990;28;20248;-62
2022/12/17 17:48:36;;;;;;;71.32;41.85;;;;;;;-6.31;95.31;101436.94;5100275;28;20202;-62
2022/12/17 17:51:04;;;;;;;68.75;40.15;;;;;;;-6.35;95.21;101448.19;5100888;28;20241;-62
2022/12/17 17:53:32;;;;;;;65.47;40.67;;;;;;;-6.35;95.12;101448.19;5100933;28;20239;-63
2022/12/17 17:56:04;;;;;;;70.93;41.70;;;;;;;-6.39;94.87;101454.28;5100152;28;20248;-62
2022/12/17 17:58:31;;;;;;;73.93;43.58;;;;;;;-6.38;94.83;101449.09;5104603;28;20277;-62
2022/12/17 18:00:58;;;;;;;74.47;41.10;;;;;;;-6.37;94.70;101461.25;5104212;28;20636;-62
2022/12/17 18:03:25;;;;;;;75.03;42.70;;;;;;;-6.42;94.41;101457.78;5105383;28;20213;-63
2022/12/17 18:05:52;;;;;;;63.08;40.40;;;;;;;-6.48;94.10;101461.22;5104171;28;20248;-62
2022/12/17 18:08:19;;;;;;;76.88;46.95;;;;;;;-6.52;94.20;101469.06;5104625;28;20197;-62
2022/12/17 18:10:55;;;;;;;74.20;43.30;;;;;;;-6.58;94.04;101463.84;5104151;28;20709;-62
2022/12/17 18:16:08;;;;;;;67.25;41.15;;;;;;;-6.58;93.92;101469.06;5104212;28;20243;-63
2022/12/17 18:18:35;;;;;;;69.63;41.13;;;;;;;-6.63;93.79;101474.25;5104604;28;20232;-62
2022/12/17 18:21:03;;;;;;;68.18;41.13;;;;;;;-6.65;93.65;101473.41;5104759;28;20230;-63
2022/12/17 18:23:30;;;;;;;63.03;40.00;;;;;;;-6.72;93.60;101480.34;5104355;28;20214;-63
2022/12/17 18:25:56;;;;;;;77.32;41.55;;;;;;;-6.78;93.74;101476.91;5103617;28;20240;-63
2022/12/17 18:28:24;;;;;;;69.90;43.42;;;;;;;-6.81;93.99;101467.34;5105098;28;20247;-62
2022/12/17 18:30:51;;;;;;;92.10;46.95;;;;;;;-6.79;94.08;101462.16;5103545;28;20237;-62
2022/12/17 18:33:18;;;;;;;80.65;45.63;;;;;;;-6.79;94.12;101455.22;5104789;28;20213;-62
2022/12/17 18:35:45;;;;;;;70.18;42.45;;;;;;;-6.77;94.18;101463.00;5103421;28;20286;-62
2022/12/17 18:38:12;;;;;;;79.78;43.47;;;;;;;-6.75;94.51;101464.75;5103381;28;20229;-63
2022/12/17 18:40:38;;;;;;;135.43;76.43;;;;;;;-6.76;94.62;101449.16;5103894;28;20232;-62
2022/12/17 18:43:22;;;;;;;146.55;89.75;;;;;;;-6.81;94.73;101467.34;5104740;28;20609;-62
2022/12/17 18:45:50;;;;;;;166.82;96.78;;;;;;;-6.90;94.74;101470.81;5103117;28;20953;-62
2022/12/17 18:48:17;;;;;;;111.53;63.67;;;;;;;-6.96;94.77;101470.84;5103962;28;20197;-62
2022/12/17 18:50:45;;;;;;;86.30;52.85;;;;;;;-6.99;94.65;101481.22;5103715;28;20241;-63
2022/12/17 18:53:12;;;;;;;81.50;48.17;;;;;;;-7.08;94.39;101486.41;5103830;28;20244;-62
2022/12/17 18:55:40;;;;;;;87.25;52.05;;;;;;;-7.10;94.29;101480.34;5102826;27;20635;-62
2022/12/17 18:58:08;;;;;;;85.22;52.20;;;;;;;-7.22;93.80;101478.56;5094627;28;20216;-62
2022/12/17 19:00:36;;;;;;;94.63;54.45;;;;;;;-7.24;93.50;101482.91;5100577;28;20823;-62
2022/12/17 19:03:12;;;;;;;89.65;50.40;;;;;;;-7.24;93.17;101483.81;5103004;28;20200;-62
2022/12/17 19:05:39;;;;;;;95.30;54.83;;;;;;;-7.22;92.99;101482.06;5102465;28;20233;-62
2022/12/17 19:08:06;;;;;;;92.32;53.17;;;;;;;-7.27;92.70;101478.59;5102708;28;20718;-62
2022/12/17 19:10:36;;;;;;;88.70;53.10;;;;;;;-7.25;92.72;101479.47;5102978;28;20244;-62
2022/12/17 19:13:03;;;;;;;101.90;54.25;;;;;;;-7.14;93.42;101489.00;5102441;28;20213;-62
2022/12/17 19:15:30;;;;;;;83.28;54.90;;;;;;;-7.18;93.58;101495.06;5087728;28;20287;-62
2022/12/17 19:17:56;;;;;;;86.13;50.53;;;;;;;-7.24;93.30;101491.59;5084204;28;20197;-63
2022/12/17 19:20:25;;;;;;;92.03;49.83;;;;;;;-7.32;93.29;101487.25;5087175;28;20568;-62
2022/12/17 19:22:53;;;;;;;90.28;51.38;;;;;;;-7.34;93.08;101479.44;5088675;28;20384;-62
2022/12/17 19:25:21;;;;;;;93.00;53.08;;;;;;;-7.35;92.90;101477.72;5092240;28;20226;-62
2022/12/17 19:27:49;;;;;;;88.97;52.58;;;;;;;-7.39;92.55;101491.56;5093196;28;20220;-62
2022/12/17 19:30:18;;;;;;;89.63;51.67;;;;;;;-7.47;91.89;101491.53;5084863;28;20261;-62
2022/12/17 19:32:46;;;;;;;82.45;47.53;;;;;;;-7.46;91.63;101495.88;5095747;28;20242;-62
2022/12/17 19:35:13;;;;;;;67.50;44.70;;;;;;;-7.50;91.53;101488.91;5084010;28;20241;-63
2022/12/17 19:37:42;;;;;;;81.65;46.47;;;;;;;-7.51;91.45;101494.13;5091484;28;20208;-62
2022/12/17 19:40:11;;;;;;;83.53;43.85;;;;;;;-7.54;91.22;101494.13;5086826;28;20384;-62
2022/12/17 19:42:39;;;;;;;70.72;44.10;;;;;;;-7.56;91.24;101494.09;5087416;28;20236;-62
2022/12/17 19:45:08;;;;;;;76.95;46.00;;;;;;;-7.58;91.35;101493.25;5081944;28;20218;-62
2022/12/17 19:47:36;;;;;;;99.10;51.80;;;;;;;-7.59;91.47;101497.53;5087685;28;20218;-62
2022/12/17 19:50:05;;;;;;;83.15;49.30;;;;;;;-7.62;91.56;101505.34;5081127;28;20217;-62
2022/12/17 19:52:34;;;;;;;84.45;50.53;;;;;;;-7.65;91.70;101496.69;5085064;28;20229;-62
2022/12/17 19:55:05;;;;;;;77.60;48.08;;;;;;;-7.61;92.01;101506.22;5087074;28;20203;-62
2022/12/17 19:57:34;;;;;;;81.05;49.50;;;;;;;-7.57;92.01;101505.34;5079325;28;20668;-62
2022/12/17 20:00:04;;;;;;;75.55;45.92;;;;;;;-7.57;92.30;101503.63;5083181;28;20206;-62
2022/12/17 20:02:33;;;;;;;68.15;41.60;;;;;;;-7.53;92.70;101509.72;5083555;28;20238;-62
2022/12/17 20:05:03;;;;;;;72.53;45.78;;;;;;;-7.59;92.75;101509.69;5085988;28;20212;-62
2022/12/17 20:07:31;;;;;;;78.60;45.25;;;;;;;-7.61;92.75;101514.84;5080917;28;20288;-62
2022/12/17 20:09:59;;;;;;;78.05;44.70;;;;;;;-7.67;92.40;101508.78;5082467;28;20202;-62
2022/12/17 20:12:31;;;;;;;95.10;53.78;;;;;;;-7.60;92.55;101501.03;5081823;28;20738;-62
2022/12/17 20:14:58;;;;;;;77.28;45.05;;;;;;;-7.62;92.59;101505.34;5083131;28;20264;-62
2022/12/17 20:17:28;;;;;;;73.10;45.15;;;;;;;-7.62;92.53;101497.56;5087234;28;20235;-63
2022/12/17 20:19:57;;;;;;;68.97;40.92;;;;;;;-7.54;93.21;101505.38;5097014;28;20985;-62
2022/12/17 20:22:26;;;;;;;65.78;38.97;;;;;;;-7.48;93.79;101508.00;5092310;28;20232;-63
2022/12/17 20:24:52;;;;;;;64.95;40.83;;;;;;;-7.51;93.64;101501.94;5102100;28;20207;-62
2022/12/17 20:27:22;;;;;;;71.85;41.10;;;;;;;-7.61;93.25;101512.25;5099953;28;20235;-62
2022/12/17 20:29:52;;;;;;;76.95;42.42;;;;;;;-7.58;93.29;101512.28;5102111;28;20193;-62
2022/12/17 20:32:21;;;;;;;48.38;33.17;;;;;;;-7.43;94.10;101513.19;5101465;28;20258;-63
2022/12/17 20:34:52;;;;;;;52.75;31.08;;;;;;;-7.12;95.37;101521.91;5100681;28;20248;-62
2022/12/17 20:37:20;;;;;;;59.08;35.95;;;;;;;-7.10;95.94;101524.53;5094127;27;20234;-63
2022/12/17 20:39:50;;;;;;;74.43;40.20;;;;;;;-7.04;96.26;101538.41;5099696;28;20240;-63
2022/12/17 20:42:18;;;;;;;58.83;33.75;;;;;;;-7.03;96.74;101539.25;5100065;28;20718;-62
2022/12/17 20:44:48;;;;;;;48.03;30.85;;;;;;;-7.04;97.11;101534.94;5101524;28;20285;-63
2022/12/17 20:47:18;;;;;;;52.17;33.33;;;;;;;-7.01;97.42;101530.59;5101342;28;20248;-63
2022/12/17 20:49:46;;;;;;;73.68;42.33;;;;;;;-7.06;97.48;101537.53;5099665;28;20206;-62
2022/12/17 20:52:15;;;;;;;67.20;43.65;;;;;;;-7.13;97.37;101541.00;5100757;28;20241;-62
2022/12/17 20:54:45;;;;;;;68.90;40.67;;;;;;;-7.39;96.83;101544.38;5100898;28;20209;-63
2022/12/17 20:57:13;;;;;;;62.03;38.45;;;;;;;-7.58;96.42;101542.59;5100039;28;20506;-62
2022/12/17 20:59:44;;;;;;;89.80;44.25;;;;;;;-7.57;96.52;101546.91;5101404;28;20231;-63
2022/12/17 21:02:13;;;;;;;80.35;46.45;;;;;;;-7.54;96.65;101546.06;5100909;27;20241;-62
2022/12/17 21:04:46;;;;;;;79.93;43.47;;;;;;;-7.57;96.56;101544.31;5100279;28;20197;-63
2022/12/17 21:07:14;;;;;;;63.30;36.70;;;;;;;-7.46;96.86;101552.16;5101102;27;20239;-63
2022/12/17 21:09:45;;;;;;;53.28;32.08;;;;;;;-7.44;97.04;101547.84;5101439;28;20260;-63
2022/12/17 21:12:16;;;;;;;46.67;32.60;;;;;;;-7.21;97.50;101550.50;5099662;28;20637;-62
2022/12/17 21:14:43;;;;;;;67.35;41.47;;;;;;;-7.46;97.25;101547.81;5100323;28;20231;-62
2022/12/17 21:17:13;;;;;;;96.53;54.63;;;;;;;-7.61;97.04;101551.22;5100782;27;20706;-62
2022/12/17 21:19:44;;;;;;;89.88;50.95;;;;;;;-7.76;96.58;101552.03;5099798;28;20192;-62
2022/12/17 21:22:16;;;;;;;65.00;36.38;;;;;;;-7.76;96.47;101557.22;5100299;28;20256;-62
2022/12/17 21:24:45;;;;;;;64.43;38.90;;;;;;;-7.74;96.69;101556.34;5098012;28;20193;-62
2022/12/17 21:27:12;;;;;;;52.67;31.38;;;;;;;-7.65;97.15;101561.59;5091131;28;20260;-62
2022/12/17 21:29:39;;;;;;;55.50;32.72;;;;;;;-7.74;97.04;101559.84;5088788;28;20193;-62
2022/12/17 21:32:06;;;;;;;51.08;29.08;;;;;;;-7.67;97.11;101559.00;5085970;28;20230;-63
2022/12/17 21:34:34;;;;;;;46.13;30.70;;;;;;;-7.49;97.35;101557.34;5100571;28;20209;-62
2022/12/17 21:37:03;;;;;;;55.80;33.58;;;;;;;-7.52;97.47;101560.78;5084054;28;20235;-62
2022/12/17 21:39:30;;;;;;;66.65;40.10;;;;;;;-7.59;97.52;101557.28;5067269;28;20509;-60
2022/12/17 21:44:41;;;;;;;49.47;31.98;;;;;;;-7.74;96.90;101561.53;5075366;28;20204;-59
2022/12/17 21:47:08;;;;;;;50.50;31.77;;;;;;;-7.81;96.61;101568.41;5083980;28;20238;-59
2022/12/17 21:49:34;;;;;;;56.25;34.97;;;;;;;-7.83;96.69;101567.56;5083646;28;20195;-58
2022/12/17 21:52:03;;;;;;;49.00;30.38;;;;;;;-7.75;97.03;101565.88;5083905;28;20234;-59
2022/12/17 21:54:30;;;;;;;46.20;31.23;;;;;;;-7.79;97.08;101567.59;5059416;28;20320;-59
2022/12/17 21:56:57;;;;;;;44.30;29.27;;;;;;;-7.86;96.99;101567.53;5082380;28;20234;-59
2022/12/17 21:59:24;;;;;;;50.08;31.50;;;;;;;-7.84;97.03;101558.03;5084946;28;20213;-59
2022/12/17 22:01:52;;;;;;;60.38;34.72;;;;;;;-7.84;97.12;101563.25;5084178;28;20255;-60
2022/12/17 22:04:19;;;;;;;61.35;34.65;;;;;;;-7.93;97.01;101573.56;5083822;28;20218;-59
2022/12/17 22:06:46;;;;;;;56.42;34.35;;;;;;;-7.99;97.21;101579.59;5083026;28;20264;-59
2022/12/17 22:09:14;;;;;;;54.05;35.35;;;;;;;-7.94;97.19;101588.25;5084581;28;20199;-59
2022/12/17 22:11:41;;;;;;;61.20;38.88;;;;;;;-8.01;96.93;101594.28;5081994;28;20283;-59
2022/12/17 22:14:10;;;;;;;57.75;31.65;;;;;;;-8.16;96.46;101589.84;5084510;28;20214;-58
2022/12/17 22:16:40;;;;;;;50.65;30.23;;;;;;;-8.14;96.31;101590.75;5083163;28;20294;-58
2022/12/17 22:19:08;;;;;;;59.20;33.75;;;;;;;-8.13;96.28;101588.13;5083509;28;20198;-58
2022/12/17 22:21:36;;;;;;;60.00;34.80;;;;;;;-8.13;96.06;101589.88;5083697;28;20307;-58
2022/12/17 22:24:04;;;;;;;59.25;35.08;;;;;;;-8.01;96.21;101586.50;5084049;28;20766;-59
2022/12/17 22:26:33;;;;;;;55.28;34.83;;;;;;;-7.94;96.21;101593.47;5080904;28;20289;-59
2022/12/17 22:29:00;;;;;;;48.15;31.02;;;;;;;-8.03;95.99;101591.66;5073948;28;20302;-59
2022/12/17 22:34:12;;;;;;;56.10;31.30;;;;;;;-8.16;96.10;101584.66;5083328;28;20226;-59
2022/12/17 22:36:39;;;;;;;54.90;31.17;;;;;;;-8.27;95.79;101584.59;5083604;28;20299;-59
2022/12/17 22:39:08;;;;;;;50.78;32.25;;;;;;;-8.41;95.26;101589.66;5097096;28;20233;-59
2022/12/17 22:44:17;;;;;;;60.30;34.03;;;;;;;-8.06;96.01;101581.25;5101746;28;20206;-59
2022/12/17 22:46:44;;;;;;;48.33;32.25;;;;;;;-8.04;96.10;101578.69;5103636;27;20274;-59
2022/12/17 22:49:11;;;;;;;58.80;31.20;;;;;;;-8.17;95.77;101588.13;5102845;28;20198;-59
2022/12/17 22:51:40;;;;;;;54.95;28.58;;;;;;;-8.21;95.48;101589.81;5104022;28;20652;-60
2022/12/17 22:54:06;;;;;;;53.13;31.40;;;;;;;-8.15;95.47;101594.19;5104619;28;20210;-59
2022/12/17 22:56:34;;;;;;;52.53;28.52;;;;;;;-8.17;95.58;101595.91;5102179;28;20233;-60
2022/12/17 22:59:02;;;;;;;58.92;33.05;;;;;;;-8.20;95.23;101593.28;5104591;28;21007;-60
2022/12/17 23:01:29;;;;;;;62.72;32.42;;;;;;;-8.25;94.87;101593.25;5103279;28;20240;-60
2022/12/17 23:03:57;;;;;;;56.42;33.75;;;;;;;-8.25;94.52;101593.25;5103929;28;20205;-59
2022/12/17 23:06:23;;;;;;;46.65;29.70;;;;;;;-8.28;94.34;101590.66;5102948;28;20252;-60
2022/12/17 23:08:50;;;;;;;67.00;36.92;;;;;;;-8.27;94.37;101591.50;5104117;28;20251;-59
2022/12/17 23:11:19;;;;;;;50.45;29.17;;;;;;;-8.24;94.33;101594.13;5102013;28;20236;-60
2022/12/17 23:13:46;;;;;;;49.40;26.20;;;;;;;-8.24;94.26;101589.81;5104063;28;20339;-60
2022/12/17 23:16:15;;;;;;;54.08;34.13;;;;;;;-8.23;94.44;101593.25;5103075;28;20237;-60
2022/12/17 23:18:42;;;;;;;50.67;29.65;;;;;;;-8.25;94.61;101594.97;5102526;28;20208;-60
2022/12/17 23:21:11;;;;;;;54.60;29.98;;;;;;;-8.30;94.34;101594.06;5103570;28;20274;-60
2022/12/17 23:23:38;;;;;;;45.08;27.67;;;;;;;-8.27;94.69;101599.28;5103949;28;20282;-59
2022/12/17 23:26:08;;;;;;;54.88;28.75;;;;;;;-8.19;95.22;101601.09;5101655;27;20279;-60
2022/12/17 23:28:35;;;;;;;44.58;26.30;;;;;;;-8.13;95.67;101595.91;5104324;28;20194;-60
2022/12/17 23:31:07;;;;;;;49.78;30.65;;;;;;;-8.12;95.64;101599.41;5102932;28;20241;-59
2022/12/17 23:33:35;;;;;;;53.08;27.23;;;;;;;-8.21;95.63;101601.91;5103159;28;20224;-60
2022/12/17 23:36:04;;;;;;;46.78;27.20;;;;;;;-8.19;95.73;101603.69;5101231;28;20229;-60
2022/12/17 23:38:32;;;;;;;49.22;26.05;;;;;;;-8.21;95.79;101600.22;5104076;28;20253;-60
2022/12/17 23:41:03;;;;;;;44.72;26.90;;;;;;;-8.14;96.14;101603.72;5102350;28;20714;-60
2022/12/17 23:43:30;;;;;;;49.65;28.35;;;;;;;-8.20;96.12;101601.06;5103343;28;20627;-59
2022/12/17 23:45:56;;;;;;;43.25;24.10;;;;;;;-8.29;95.92;101598.41;5103129;27;20233;-60
2022/12/17 23:48:23;;;;;;;68.63;38.20;;;;;;;-8.36;95.88;101598.34;5103355;28;20194;-59
2022/12/17 23:50:51;;;;;;;49.50;25.20;;;;;;;-8.32;96.00;101615.66;5102120;28;20245;-59
2022/12/17 23:53:18;;;;;;;44.45;25.13;;;;;;;-8.20;96.47;101620.09;5102704;28;20193;-60
2022/12/17 23:55:45;;;;;;;38.70;22.27;;;;;;;-8.06;96.87;101612.41;5101393;28;20248;-60
2022/12/17 23:58:12;;;;;;;39.42;23.05;;;;;;;-8.02;96.88;101619.38;5103126;28;20224;-59
